Main page
METAR-TAF:

METAR-TAF

Airports :

Pompano Beach Airpark

Pompano Beach, Florida, United States

latitude: 26-14-44N, longitude: 080-06-41W, elevation: 20 ft

Current weather observation

The report was made 22 minutes ago, at 12:53 UTC
Wind 13 mph from the Southeast
Temperature 82°F
Humidity 84%
Pressure 30.07 in. Hg
Visibility: 9 miles
Few clouds at a height of 2600 ft

METAR: KPMP 281253Z 14011KT 9SM FEW026 28/25 A3007 RMK AO2 SLP184 T02830250

Time: 09:15 (13:15 UTC)


TAF: missing

Weather observations and forecasts of more than 4000 airports (METAR and TAF reports).

The available stations are represented by yellow and red dots on the map.

Hover mouse over dot to see the name of the station.

Then click to see weather observations and forecasts.

To change the map : click on the green buttons with a black cross to zoom in, on the green button with a dash to zoom out, or on the green arrows for adjacent maps.


METAR-TAF: